sensor_id;sensor_type;location;lat;lon;timestamp;P1;durP1;ratioP1;P2;durP2;ratioP2
45033;SDS011;30771;47.988;-4.186;2023-03-23T17:39:34;13.23;;;2.00;;
45033;SDS011;30771;47.988;-4.186;2023-03-23T17:41:59;13.10;;;2.53;;
45033;SDS011;30771;47.988;-4.186;2023-03-23T17:44:25;13.60;;;2.83;;
45033;SDS011;30771;47.988;-4.186;2023-03-23T17:46:51;18.88;;;10.60;;
45033;SDS011;30771;47.988;-4.186;2023-03-23T17:49:16;12.15;;;2.85;;
45033;SDS011;30771;47.988;-4.186;2023-03-23T17:51:42;12.15;;;2.15;;
45033;SDS011;30771;47.988;-4.186;2023-03-23T17:54:07;12.63;;;2.47;;
45033;SDS011;30771;47.988;-4.186;2023-03-23T17:56:32;15.18;;;2.35;;
45033;SDS011;30771;47.988;-4.186;2023-03-23T17:58:58;13.48;;;3.03;;
45033;SDS011;30771;47.988;-4.186;2023-03-23T18:01:23;10.20;;;2.40;;
45033;SDS011;30771;47.988;-4.186;2023-03-23T18:03:49;8.25;;;2.85;;
45033;SDS011;30771;47.988;-4.186;2023-03-23T18:06:14;15.73;;;3.47;;
45033;SDS011;30771;47.988;-4.186;2023-03-23T18:08:39;10.07;;;2.70;;
45033;SDS011;30771;47.988;-4.186;2023-03-23T18:11:08;15.77;;;3.85;;
45033;SDS011;30771;47.988;-4.186;2023-03-23T18:13:34;17.40;;;4.43;;
45033;SDS011;30771;47.988;-4.186;2023-03-23T18:16:00;12.15;;;2.70;;
45033;SDS011;30771;47.988;-4.186;2023-03-23T18:18:26;16.05;;;3.47;;
45033;SDS011;30771;47.988;-4.186;2023-03-23T18:20:59;28.13;;;17.20;;
45033;SDS011;30771;47.988;-4.186;2023-03-23T18:23:32;13.15;;;2.72;;
45033;SDS011;30771;47.988;-4.186;2023-03-23T18:25:59;17.98;;;3.15;;
45033;SDS011;30771;47.988;-4.186;2023-03-23T18:28:24;19.65;;;4.93;;
45033;SDS011;30771;47.988;-4.186;2023-03-23T18:30:49;19.20;;;5.07;;
45033;SDS011;30771;47.988;-4.186;2023-03-23T18:33:15;21.90;;;4.63;;
45033;SDS011;30771;47.988;-4.186;2023-03-23T18:35:41;24.45;;;5.13;;
45033;SDS011;30771;47.988;-4.186;2023-03-23T18:38:06;39.33;;;12.40;;
45033;SDS011;30771;47.988;-4.186;2023-03-23T18:40:32;31.33;;;9.55;;
45033;SDS011;30771;47.988;-4.186;2023-03-23T18:42:57;21.58;;;6.90;;
45033;SDS011;30771;47.988;-4.186;2023-03-23T18:45:23;27.30;;;5.30;;
45033;SDS011;30771;47.988;-4.186;2023-03-23T18:47:49;27.45;;;7.45;;
45033;SDS011;30771;47.988;-4.186;2023-03-23T18:50:14;24.17;;;8.30;;
45033;SDS011;30771;47.988;-4.186;2023-03-23T18:52:39;31.15;;;10.40;;
45033;SDS011;30771;47.988;-4.186;2023-03-23T18:55:05;20.33;;;5.00;;
45033;SDS011;30771;47.988;-4.186;2023-03-23T18:57:30;29.20;;;5.88;;
45033;SDS011;30771;47.988;-4.186;2023-03-23T18:59:56;27.70;;;5.70;;
45033;SDS011;30771;47.988;-4.186;2023-03-23T19:02:21;45.28;;;22.42;;
45033;SDS011;30771;47.988;-4.186;2023-03-23T19:04:49;35.25;;;14.43;;
45033;SDS011;30771;47.988;-4.186;2023-03-23T19:07:15;69.05;;;23.77;;
45033;SDS011;30771;47.988;-4.186;2023-03-23T19:09:42;41.35;;;8.05;;
45033;SDS011;30771;47.988;-4.186;2023-03-23T19:12:08;53.28;;;20.80;;
45033;SDS011;30771;47.988;-4.186;2023-03-23T19:14:35;37.83;;;8.85;;
45033;SDS011;30771;47.988;-4.186;2023-03-23T19:17:01;31.45;;;8.07;;
45033;SDS011;30771;47.988;-4.186;2023-03-23T19:19:27;42.42;;;10.00;;
45033;SDS011;30771;47.988;-4.186;2023-03-23T19:21:52;54.60;;;12.20;;
45033;SDS011;30771;47.988;-4.186;2023-03-23T19:24:17;60.78;;;27.42;;
45033;SDS011;30771;47.988;-4.186;2023-03-23T19:26:43;41.35;;;10.20;;
45033;SDS011;30771;47.988;-4.186;2023-03-23T19:29:10;42.60;;;8.85;;
45033;SDS011;30771;47.988;-4.186;2023-03-23T19:31:37;43.78;;;7.07;;
45033;SDS011;30771;47.988;-4.186;2023-03-23T19:34:03;38.63;;;6.95;;
45033;SDS011;30771;47.988;-4.186;2023-03-23T19:36:28;46.25;;;6.78;;
45033;SDS011;30771;47.988;-4.186;2023-03-23T19:38:54;40.75;;;5.53;;
45033;SDS011;30771;47.988;-4.186;2023-03-23T19:41:19;41.85;;;6.68;;
45033;SDS011;30771;47.988;-4.186;2023-03-23T19:43:46;48.28;;;6.50;;
45033;SDS011;30771;47.988;-4.186;2023-03-23T19:46:11;50.40;;;7.57;;
45033;SDS011;30771;47.988;-4.186;2023-03-23T19:48:38;47.00;;;6.18;;
45033;SDS011;30771;47.988;-4.186;2023-03-23T19:51:04;57.40;;;7.03;;
45033;SDS011;30771;47.988;-4.186;2023-03-23T19:53:29;36.70;;;6.32;;
45033;SDS011;30771;47.988;-4.186;2023-03-23T19:55:55;43.92;;;7.93;;
45033;SDS011;30771;47.988;-4.186;2023-03-23T19:58:20;50.65;;;7.03;;
45033;SDS011;30771;47.988;-4.186;2023-03-23T20:00:46;52.92;;;6.75;;
45033;SDS011;30771;47.988;-4.186;2023-03-23T20:03:12;49.53;;;6.65;;
45033;SDS011;30771;47.988;-4.186;2023-03-23T20:05:38;53.65;;;8.30;;
45033;SDS011;30771;47.988;-4.186;2023-03-23T20:08:03;51.55;;;6.13;;
45033;SDS011;30771;47.988;-4.186;2023-03-23T20:10:29;50.92;;;8.75;;
45033;SDS011;30771;47.988;-4.186;2023-03-23T20:12:54;56.03;;;7.63;;
45033;SDS011;30771;47.988;-4.186;2023-03-23T20:15:20;57.33;;;7.53;;
45033;SDS011;30771;47.988;-4.186;2023-03-23T20:17:45;51.78;;;6.55;;
45033;SDS011;30771;47.988;-4.186;2023-03-23T20:20:10;50.63;;;6.82;;
45033;SDS011;30771;47.988;-4.186;2023-03-23T20:22:36;51.40;;;6.30;;
45033;SDS011;30771;47.988;-4.186;2023-03-23T20:25:01;53.78;;;6.65;;
45033;SDS011;30771;47.988;-4.186;2023-03-23T20:27:28;53.65;;;8.38;;
45033;SDS011;30771;47.988;-4.186;2023-03-23T20:29:53;49.38;;;7.25;;
45033;SDS011;30771;47.988;-4.186;2023-03-23T20:32:19;112.32;;;40.75;;
45033;SDS011;30771;47.988;-4.186;2023-03-23T20:34:45;69.60;;;16.73;;
45033;SDS011;30771;47.988;-4.186;2023-03-23T20:37:11;65.88;;;14.00;;
45033;SDS011;30771;47.988;-4.186;2023-03-23T20:39:36;58.63;;;9.25;;
45033;SDS011;30771;47.988;-4.186;2023-03-23T20:42:02;56.13;;;7.90;;
45033;SDS011;30771;47.988;-4.186;2023-03-23T20:44:27;48.83;;;6.88;;
45033;SDS011;30771;47.988;-4.186;2023-03-23T20:46:53;84.38;;;22.58;;
45033;SDS011;30771;47.988;-4.186;2023-03-23T20:49:19;92.75;;;31.60;;
45033;SDS011;30771;47.988;-4.186;2023-03-23T20:51:45;108.22;;;47.47;;
45033;SDS011;30771;47.988;-4.186;2023-03-23T20:54:11;68.68;;;12.88;;
45033;SDS011;30771;47.988;-4.186;2023-03-23T20:56:37;51.13;;;8.38;;
45033;SDS011;30771;47.988;-4.186;2023-03-23T20:59:02;69.60;;;12.35;;
45033;SDS011;30771;47.988;-4.186;2023-03-23T21:01:28;49.97;;;7.45;;
45033;SDS011;30771;47.988;-4.186;2023-03-23T21:03:53;44.42;;;6.70;;
45033;SDS011;30771;47.988;-4.186;2023-03-23T21:06:19;54.65;;;12.23;;
45033;SDS011;30771;47.988;-4.186;2023-03-23T21:08:45;56.72;;;10.27;;
45033;SDS011;30771;47.988;-4.186;2023-03-23T21:11:12;53.28;;;7.40;;
45033;SDS011;30771;47.988;-4.186;2023-03-23T21:13:45;55.67;;;6.50;;
45033;SDS011;30771;47.988;-4.186;2023-03-23T21:16:10;55.00;;;7.60;;
45033;SDS011;30771;47.988;-4.186;2023-03-23T21:18:36;59.67;;;8.00;;
45033;SDS011;30771;47.988;-4.186;2023-03-23T21:21:02;60.58;;;7.90;;
45033;SDS011;30771;47.988;-4.186;2023-03-23T21:23:28;58.95;;;10.93;;
45033;SDS011;30771;47.988;-4.186;2023-03-23T21:25:53;55.90;;;9.50;;
45033;SDS011;30771;47.988;-4.186;2023-03-23T21:30:47;59.23;;;7.67;;
45033;SDS011;30771;47.988;-4.186;2023-03-23T21:33:13;52.33;;;6.22;;
45033;SDS011;30771;47.988;-4.186;2023-03-23T21:35:39;61.38;;;7.55;;
45033;SDS011;30771;47.988;-4.186;2023-03-23T21:38:05;61.80;;;9.27;;
45033;SDS011;30771;47.988;-4.186;2023-03-23T21:40:30;61.72;;;8.00;;
45033;SDS011;30771;47.988;-4.186;2023-03-23T21:42:55;60.10;;;7.80;;
45033;SDS011;30771;47.988;-4.186;2023-03-23T21:45:21;49.30;;;7.18;;
45033;SDS011;30771;47.988;-4.186;2023-03-23T21:47:47;51.33;;;7.03;;
45033;SDS011;30771;47.988;-4.186;2023-03-23T21:50:13;63.90;;;6.85;;
45033;SDS011;30771;47.988;-4.186;2023-03-23T21:52:39;72.65;;;8.15;;
45033;SDS011;30771;47.988;-4.186;2023-03-23T21:55:05;65.93;;;6.97;;
45033;SDS011;30771;47.988;-4.186;2023-03-23T21:57:30;52.70;;;7.03;;
45033;SDS011;30771;47.988;-4.186;2023-03-23T21:59:56;50.40;;;6.13;;
45033;SDS011;30771;47.988;-4.186;2023-03-23T22:02:21;61.33;;;6.88;;
45033;SDS011;30771;47.988;-4.186;2023-03-23T22:04:47;61.53;;;6.97;;
45033;SDS011;30771;47.988;-4.186;2023-03-23T22:07:12;57.72;;;6.90;;
45033;SDS011;30771;47.988;-4.186;2023-03-23T22:09:38;63.75;;;7.68;;
45033;SDS011;30771;47.988;-4.186;2023-03-23T22:12:04;50.58;;;6.82;;
45033;SDS011;30771;47.988;-4.186;2023-03-23T22:14:29;70.90;;;6.43;;
45033;SDS011;30771;47.988;-4.186;2023-03-23T22:16:55;48.80;;;6.00;;
45033;SDS011;30771;47.988;-4.186;2023-03-23T22:19:20;74.45;;;8.30;;
45033;SDS011;30771;47.988;-4.186;2023-03-23T22:21:45;61.47;;;7.47;;
45033;SDS011;30771;47.988;-4.186;2023-03-23T22:24:11;56.05;;;7.97;;
45033;SDS011;30771;47.988;-4.186;2023-03-23T22:26:36;65.30;;;7.07;;
45033;SDS011;30771;47.988;-4.186;2023-03-23T22:29:02;59.72;;;6.70;;
45033;SDS011;30771;47.988;-4.186;2023-03-23T22:31:29;68.30;;;7.22;;
45033;SDS011;30771;47.988;-4.186;2023-03-23T22:33:56;67.78;;;8.18;;
45033;SDS011;30771;47.988;-4.186;2023-03-23T22:36:22;62.38;;;7.22;;
45033;SDS011;30771;47.988;-4.186;2023-03-23T22:38:48;50.15;;;7.07;;
45033;SDS011;30771;47.988;-4.186;2023-03-23T22:41:16;65.82;;;8.05;;
45033;SDS011;30771;47.988;-4.186;2023-03-23T22:43:43;64.57;;;7.53;;
45033;SDS011;30771;47.988;-4.186;2023-03-23T22:46:08;62.90;;;6.97;;
45033;SDS011;30771;47.988;-4.186;2023-03-23T22:48:33;50.92;;;6.90;;
45033;SDS011;30771;47.988;-4.186;2023-03-23T22:50:59;76.85;;;7.30;;
45033;SDS011;30771;47.988;-4.186;2023-03-23T22:53:24;52.25;;;6.85;;
45033;SDS011;30771;47.988;-4.186;2023-03-23T22:55:51;64.13;;;7.65;;
45033;SDS011;30771;47.988;-4.186;2023-03-23T22:58:18;68.80;;;7.85;;
45033;SDS011;30771;47.988;-4.186;2023-03-23T23:00:45;71.20;;;8.85;;
45033;SDS011;30771;47.988;-4.186;2023-03-23T23:03:12;64.60;;;7.50;;
45033;SDS011;30771;47.988;-4.186;2023-03-23T23:05:41;64.93;;;7.40;;
45033;SDS011;30771;47.988;-4.186;2023-03-23T23:08:07;72.40;;;7.20;;
45033;SDS011;30771;47.988;-4.186;2023-03-23T23:10:33;60.85;;;8.60;;
45033;SDS011;30771;47.988;-4.186;2023-03-23T23:12:59;73.60;;;8.25;;
45033;SDS011;30771;47.988;-4.186;2023-03-23T23:15:24;78.43;;;7.78;;
45033;SDS011;30771;47.988;-4.186;2023-03-23T23:17:50;72.95;;;7.90;;
45033;SDS011;30771;47.988;-4.186;2023-03-23T23:20:15;68.75;;;8.05;;
45033;SDS011;30771;47.988;-4.186;2023-03-23T23:22:41;69.75;;;9.05;;
45033;SDS011;30771;47.988;-4.186;2023-03-23T23:25:06;82.55;;;8.82;;
45033;SDS011;30771;47.988;-4.186;2023-03-23T23:27:32;63.58;;;8.10;;
45033;SDS011;30771;47.988;-4.186;2023-03-23T23:29:57;72.82;;;8.90;;
45033;SDS011;30771;47.988;-4.186;2023-03-23T23:32:23;71.93;;;8.75;;
45033;SDS011;30771;47.988;-4.186;2023-03-23T23:34:49;73.90;;;8.23;;
45033;SDS011;30771;47.988;-4.186;2023-03-23T23:37:14;68.15;;;9.00;;
45033;SDS011;30771;47.988;-4.186;2023-03-23T23:39:39;71.95;;;8.25;;
45033;SDS011;30771;47.988;-4.186;2023-03-23T23:42:05;86.63;;;10.15;;
45033;SDS011;30771;47.988;-4.186;2023-03-23T23:44:30;93.82;;;9.50;;
45033;SDS011;30771;47.988;-4.186;2023-03-23T23:46:56;85.18;;;8.90;;
45033;SDS011;30771;47.988;-4.186;2023-03-23T23:49:22;68.03;;;8.40;;
45033;SDS011;30771;47.988;-4.186;2023-03-23T23:51:48;74.55;;;8.40;;
45033;SDS011;30771;47.988;-4.186;2023-03-23T23:54:13;72.78;;;8.00;;
45033;SDS011;30771;47.988;-4.186;2023-03-23T23:56:38;64.90;;;7.82;;
45033;SDS011;30771;47.988;-4.186;2023-03-23T23:59:04;68.20;;;9.00;;
